Terminal Aerodrome Forecast
Issued by NWS

Home | Current Version | Previous Version | Text Only | Print | Product List | Glossary Off
Versions: 1 2 3 4 5 6 7 8 9 10 11 12 13 14 15 16 17 18

000
FTUS43 KTOP 120500
TAFFOE
TAF
KFOE 120520Z 1206/1306 20009KT P6SM SCT250
     FM121500 21015G23KT P6SM SCT060
     FM130000 18010KT P6SM SCT100=

USA.gov is the U.S. government's official web portal to all federal, state and local government web resources and services.